sensor_id;sensor_type;location;lat;lon;timestamp;P1;durP1;ratioP1;P2;durP2;ratioP2
19207;SDS011;9737;59.466;18.036;2022-11-30T00:01:19;13.20;;;5.55;;
19207;SDS011;9737;59.466;18.036;2022-11-30T00:03:51;12.02;;;6.25;;
19207;SDS011;9737;59.466;18.036;2022-11-30T00:06:19;12.38;;;5.47;;
19207;SDS011;9737;59.466;18.036;2022-11-30T00:08:51;11.00;;;5.78;;
19207;SDS011;9737;59.466;18.036;2022-11-30T00:11:21;8.48;;;5.40;;
19207;SDS011;9737;59.466;18.036;2022-11-30T00:13:50;9.23;;;5.25;;
19207;SDS011;9737;59.466;18.036;2022-11-30T00:16:18;12.25;;;5.78;;
19207;SDS011;9737;59.466;18.036;2022-11-30T00:18:46;10.93;;;5.78;;
19207;SDS011;9737;59.466;18.036;2022-11-30T00:21:14;9.95;;;5.20;;
19207;SDS011;9737;59.466;18.036;2022-11-30T00:23:43;8.60;;;5.18;;
19207;SDS011;9737;59.466;18.036;2022-11-30T00:26:13;11.95;;;5.90;;
19207;SDS011;9737;59.466;18.036;2022-11-30T00:28:44;11.75;;;5.60;;
19207;SDS011;9737;59.466;18.036;2022-11-30T00:31:13;14.52;;;5.93;;
19207;SDS011;9737;59.466;18.036;2022-11-30T00:33:43;13.35;;;6.05;;
19207;SDS011;9737;59.466;18.036;2022-11-30T00:36:11;12.57;;;6.38;;
19207;SDS011;9737;59.466;18.036;2022-11-30T00:38:41;12.73;;;6.63;;
19207;SDS011;9737;59.466;18.036;2022-11-30T00:41:09;14.45;;;6.38;;
19207;SDS011;9737;59.466;18.036;2022-11-30T00:43:37;12.32;;;5.75;;
19207;SDS011;9737;59.466;18.036;2022-11-30T00:46:07;12.18;;;6.15;;
19207;SDS011;9737;59.466;18.036;2022-11-30T00:48:36;13.25;;;5.82;;
19207;SDS011;9737;59.466;18.036;2022-11-30T00:51:04;11.50;;;5.95;;
19207;SDS011;9737;59.466;18.036;2022-11-30T00:53:33;19.90;;;5.95;;
19207;SDS011;9737;59.466;18.036;2022-11-30T00:56:01;13.18;;;6.10;;
19207;SDS011;9737;59.466;18.036;2022-11-30T00:58:28;12.25;;;5.93;;
19207;SDS011;9737;59.466;18.036;2022-11-30T01:00:56;12.38;;;5.90;;
19207;SDS011;9737;59.466;18.036;2022-11-30T01:03:26;11.80;;;5.90;;
19207;SDS011;9737;59.466;18.036;2022-11-30T01:05:54;11.85;;;5.95;;
19207;SDS011;9737;59.466;18.036;2022-11-30T01:08:21;13.85;;;6.28;;
19207;SDS011;9737;59.466;18.036;2022-11-30T01:10:50;14.93;;;6.38;;
19207;SDS011;9737;59.466;18.036;2022-11-30T01:13:19;14.98;;;6.80;;
19207;SDS011;9737;59.466;18.036;2022-11-30T01:15:46;11.63;;;5.45;;
19207;SDS011;9737;59.466;18.036;2022-11-30T01:18:16;13.25;;;6.22;;
19207;SDS011;9737;59.466;18.036;2022-11-30T01:20:45;12.07;;;6.20;;
19207;SDS011;9737;59.466;18.036;2022-11-30T01:23:13;14.93;;;6.50;;
19207;SDS011;9737;59.466;18.036;2022-11-30T01:25:41;12.02;;;6.03;;
19207;SDS011;9737;59.466;18.036;2022-11-30T01:28:09;10.65;;;5.03;;
19207;SDS011;9737;59.466;18.036;2022-11-30T01:30:37;10.88;;;5.65;;
19207;SDS011;9737;59.466;18.036;2022-11-30T01:33:05;12.38;;;5.53;;
19207;SDS011;9737;59.466;18.036;2022-11-30T01:35:33;14.63;;;6.32;;
19207;SDS011;9737;59.466;18.036;2022-11-30T01:38:02;11.00;;;5.72;;
19207;SDS011;9737;59.466;18.036;2022-11-30T01:40:30;12.77;;;6.55;;
19207;SDS011;9737;59.466;18.036;2022-11-30T01:42:58;16.45;;;5.75;;
19207;SDS011;9737;59.466;18.036;2022-11-30T01:45:26;15.40;;;6.45;;
19207;SDS011;9737;59.466;18.036;2022-11-30T01:47:54;12.70;;;6.05;;
19207;SDS011;9737;59.466;18.036;2022-11-30T01:50:25;13.55;;;6.43;;
19207;SDS011;9737;59.466;18.036;2022-11-30T01:52:56;10.35;;;5.60;;
19207;SDS011;9737;59.466;18.036;2022-11-30T01:55:27;10.65;;;5.95;;
19207;SDS011;9737;59.466;18.036;2022-11-30T01:57:59;11.93;;;6.03;;
19207;SDS011;9737;59.466;18.036;2022-11-30T02:00:30;10.98;;;5.78;;
19207;SDS011;9737;59.466;18.036;2022-11-30T02:02:59;12.63;;;6.13;;
19207;SDS011;9737;59.466;18.036;2022-11-30T02:05:29;10.30;;;5.63;;
19207;SDS011;9737;59.466;18.036;2022-11-30T02:07:59;12.13;;;6.15;;
19207;SDS011;9737;59.466;18.036;2022-11-30T02:10:30;10.43;;;6.15;;
19207;SDS011;9737;59.466;18.036;2022-11-30T02:13:19;13.20;;;6.05;;
19207;SDS011;9737;59.466;18.036;2022-11-30T02:16:06;11.90;;;6.35;;
19207;SDS011;9737;59.466;18.036;2022-11-30T02:18:45;12.38;;;5.57;;
19207;SDS011;9737;59.466;18.036;2022-11-30T02:21:22;11.05;;;5.70;;
19207;SDS011;9737;59.466;18.036;2022-11-30T02:24:00;10.75;;;5.97;;
19207;SDS011;9737;59.466;18.036;2022-11-30T02:26:47;14.05;;;7.35;;
19207;SDS011;9737;59.466;18.036;2022-11-30T02:29:26;11.38;;;5.65;;
19207;SDS011;9737;59.466;18.036;2022-11-30T02:31:57;10.82;;;6.07;;
19207;SDS011;9737;59.466;18.036;2022-11-30T02:34:32;11.73;;;6.65;;
19207;SDS011;9737;59.466;18.036;2022-11-30T02:37:02;11.65;;;6.57;;
19207;SDS011;9737;59.466;18.036;2022-11-30T02:39:33;14.00;;;6.28;;
19207;SDS011;9737;59.466;18.036;2022-11-30T02:42:01;11.43;;;6.45;;
19207;SDS011;9737;59.466;18.036;2022-11-30T02:44:30;11.55;;;6.63;;
19207;SDS011;9737;59.466;18.036;2022-11-30T02:47:02;12.55;;;6.10;;
19207;SDS011;9737;59.466;18.036;2022-11-30T02:49:38;12.43;;;6.03;;
19207;SDS011;9737;59.466;18.036;2022-11-30T02:52:13;13.85;;;6.72;;
19207;SDS011;9737;59.466;18.036;2022-11-30T02:54:41;11.30;;;6.07;;
19207;SDS011;9737;59.466;18.036;2022-11-30T02:57:10;11.75;;;6.22;;
19207;SDS011;9737;59.466;18.036;2022-11-30T02:59:39;12.88;;;6.32;;
19207;SDS011;9737;59.466;18.036;2022-11-30T03:02:07;11.13;;;5.85;;
19207;SDS011;9737;59.466;18.036;2022-11-30T03:04:35;13.45;;;6.25;;
19207;SDS011;9737;59.466;18.036;2022-11-30T03:07:03;12.05;;;6.20;;
19207;SDS011;9737;59.466;18.036;2022-11-30T03:09:33;10.80;;;5.97;;
19207;SDS011;9737;59.466;18.036;2022-11-30T03:12:01;11.27;;;6.25;;
19207;SDS011;9737;59.466;18.036;2022-11-30T03:14:29;11.23;;;6.35;;
19207;SDS011;9737;59.466;18.036;2022-11-30T03:16:59;12.20;;;5.85;;
19207;SDS011;9737;59.466;18.036;2022-11-30T03:19:26;13.07;;;6.57;;
19207;SDS011;9737;59.466;18.036;2022-11-30T03:21:54;12.27;;;6.00;;
19207;SDS011;9737;59.466;18.036;2022-11-30T03:24:22;14.50;;;6.05;;
19207;SDS011;9737;59.466;18.036;2022-11-30T03:26:50;11.73;;;6.18;;
19207;SDS011;9737;59.466;18.036;2022-11-30T03:29:19;16.98;;;6.75;;
19207;SDS011;9737;59.466;18.036;2022-11-30T03:31:47;11.73;;;6.07;;
19207;SDS011;9737;59.466;18.036;2022-11-30T03:34:16;11.52;;;6.70;;
19207;SDS011;9737;59.466;18.036;2022-11-30T03:36:44;13.00;;;6.30;;
19207;SDS011;9737;59.466;18.036;2022-11-30T03:39:12;14.07;;;6.05;;
19207;SDS011;9737;59.466;18.036;2022-11-30T03:41:40;12.05;;;6.30;;
19207;SDS011;9737;59.466;18.036;2022-11-30T03:44:08;11.20;;;6.35;;
19207;SDS011;9737;59.466;18.036;2022-11-30T03:46:36;12.13;;;6.03;;
19207;SDS011;9737;59.466;18.036;2022-11-30T03:49:04;18.05;;;6.35;;
19207;SDS011;9737;59.466;18.036;2022-11-30T03:51:34;14.98;;;6.35;;
19207;SDS011;9737;59.466;18.036;2022-11-30T03:54:02;11.55;;;6.20;;
19207;SDS011;9737;59.466;18.036;2022-11-30T03:56:30;13.38;;;6.28;;
19207;SDS011;9737;59.466;18.036;2022-11-30T03:58:57;11.32;;;6.32;;
19207;SDS011;9737;59.466;18.036;2022-11-30T04:01:25;10.95;;;6.43;;
19207;SDS011;9737;59.466;18.036;2022-11-30T04:03:53;13.00;;;6.03;;
19207;SDS011;9737;59.466;18.036;2022-11-30T04:06:21;13.70;;;6.15;;
19207;SDS011;9737;59.466;18.036;2022-11-30T04:08:51;12.35;;;6.20;;
19207;SDS011;9737;59.466;18.036;2022-11-30T04:11:19;11.15;;;5.63;;
19207;SDS011;9737;59.466;18.036;2022-11-30T04:13:47;10.68;;;5.97;;
19207;SDS011;9737;59.466;18.036;2022-11-30T04:16:15;12.63;;;6.40;;
19207;SDS011;9737;59.466;18.036;2022-11-30T04:18:43;12.15;;;5.95;;
19207;SDS011;9737;59.466;18.036;2022-11-30T04:21:10;12.63;;;6.75;;
19207;SDS011;9737;59.466;18.036;2022-11-30T04:23:39;13.77;;;6.50;;
19207;SDS011;9737;59.466;18.036;2022-11-30T04:26:11;13.55;;;5.90;;
19207;SDS011;9737;59.466;18.036;2022-11-30T04:28:39;14.55;;;6.55;;
19207;SDS011;9737;59.466;18.036;2022-11-30T04:31:07;11.50;;;5.80;;
19207;SDS011;9737;59.466;18.036;2022-11-30T04:33:36;12.43;;;6.32;;
19207;SDS011;9737;59.466;18.036;2022-11-30T04:36:04;19.25;;;6.53;;
19207;SDS011;9737;59.466;18.036;2022-11-30T04:38:35;16.52;;;7.15;;
19207;SDS011;9737;59.466;18.036;2022-11-30T04:41:05;11.23;;;5.32;;
19207;SDS011;9737;59.466;18.036;2022-11-30T04:43:35;11.10;;;5.93;;
19207;SDS011;9737;59.466;18.036;2022-11-30T04:46:04;13.77;;;6.43;;
19207;SDS011;9737;59.466;18.036;2022-11-30T04:48:33;14.80;;;5.78;;
19207;SDS011;9737;59.466;18.036;2022-11-30T04:51:01;12.65;;;6.30;;
19207;SDS011;9737;59.466;18.036;2022-11-30T04:53:32;13.93;;;6.35;;
19207;SDS011;9737;59.466;18.036;2022-11-30T04:56:03;13.75;;;6.55;;
19207;SDS011;9737;59.466;18.036;2022-11-30T04:58:32;14.60;;;5.93;;
19207;SDS011;9737;59.466;18.036;2022-11-30T05:01:02;11.82;;;6.05;;
19207;SDS011;9737;59.466;18.036;2022-11-30T05:03:29;12.90;;;6.47;;
19207;SDS011;9737;59.466;18.036;2022-11-30T05:05:57;14.88;;;6.68;;
19207;SDS011;9737;59.466;18.036;2022-11-30T05:08:25;13.98;;;5.95;;
19207;SDS011;9737;59.466;18.036;2022-11-30T05:10:53;13.07;;;6.35;;
19207;SDS011;9737;59.466;18.036;2022-11-30T05:13:22;13.65;;;6.50;;
19207;SDS011;9737;59.466;18.036;2022-11-30T05:15:51;14.07;;;6.38;;
19207;SDS011;9737;59.466;18.036;2022-11-30T05:18:21;13.15;;;6.53;;
19207;SDS011;9737;59.466;18.036;2022-11-30T05:20:49;13.18;;;6.45;;
19207;SDS011;9737;59.466;18.036;2022-11-30T05:23:19;16.05;;;6.25;;
19207;SDS011;9737;59.466;18.036;2022-11-30T05:25:48;15.13;;;6.22;;
19207;SDS011;9737;59.466;18.036;2022-11-30T05:28:16;13.27;;;6.03;;
19207;SDS011;9737;59.466;18.036;2022-11-30T05:30:44;14.60;;;5.70;;
19207;SDS011;9737;59.466;18.036;2022-11-30T05:33:12;14.23;;;6.05;;
19207;SDS011;9737;59.466;18.036;2022-11-30T05:35:41;13.40;;;5.43;;
19207;SDS011;9737;59.466;18.036;2022-11-30T05:38:10;13.05;;;6.22;;
19207;SDS011;9737;59.466;18.036;2022-11-30T05:40:38;14.00;;;6.60;;
19207;SDS011;9737;59.466;18.036;2022-11-30T05:43:06;15.55;;;6.68;;
19207;SDS011;9737;59.466;18.036;2022-11-30T05:45:33;11.73;;;6.50;;
19207;SDS011;9737;59.466;18.036;2022-11-30T05:48:01;18.10;;;6.80;;
19207;SDS011;9737;59.466;18.036;2022-11-30T05:50:30;15.00;;;7.25;;
19207;SDS011;9737;59.466;18.036;2022-11-30T05:52:59;12.80;;;6.80;;
19207;SDS011;9737;59.466;18.036;2022-11-30T05:55:27;14.70;;;7.22;;
19207;SDS011;9737;59.466;18.036;2022-11-30T05:57:57;18.05;;;7.57;;
19207;SDS011;9737;59.466;18.036;2022-11-30T06:00:26;17.23;;;7.57;;
19207;SDS011;9737;59.466;18.036;2022-11-30T06:02:54;21.17;;;9.45;;
19207;SDS011;9737;59.466;18.036;2022-11-30T06:05:23;18.65;;;8.88;;
19207;SDS011;9737;59.466;18.036;2022-11-30T06:07:52;21.13;;;9.80;;
19207;SDS011;9737;59.466;18.036;2022-11-30T06:10:21;26.77;;;11.18;;
19207;SDS011;9737;59.466;18.036;2022-11-30T06:12:50;37.30;;;14.50;;
19207;SDS011;9737;59.466;18.036;2022-11-30T06:15:18;39.95;;;14.60;;
19207;SDS011;9737;59.466;18.036;2022-11-30T06:17:46;36.78;;;13.80;;
19207;SDS011;9737;59.466;18.036;2022-11-30T06:20:14;38.28;;;13.90;;
19207;SDS011;9737;59.466;18.036;2022-11-30T06:22:43;34.50;;;14.00;;
19207;SDS011;9737;59.466;18.036;2022-11-30T06:25:12;44.17;;;15.35;;
19207;SDS011;9737;59.466;18.036;2022-11-30T06:27:42;36.33;;;14.32;;
19207;SDS011;9737;59.466;18.036;2022-11-30T06:30:10;24.52;;;9.75;;
19207;SDS011;9737;59.466;18.036;2022-11-30T06:32:39;19.98;;;7.95;;
19207;SDS011;9737;59.466;18.036;2022-11-30T06:35:07;19.17;;;8.27;;
19207;SDS011;9737;59.466;18.036;2022-11-30T06:37:35;20.27;;;8.40;;
19207;SDS011;9737;59.466;18.036;2022-11-30T06:40:03;16.67;;;8.10;;
19207;SDS011;9737;59.466;18.036;2022-11-30T06:42:34;19.50;;;8.43;;
19207;SDS011;9737;59.466;18.036;2022-11-30T06:45:04;27.23;;;10.38;;
19207;SDS011;9737;59.466;18.036;2022-11-30T06:47:33;29.45;;;12.30;;
19207;SDS011;9737;59.466;18.036;2022-11-30T06:50:02;26.75;;;11.63;;
19207;SDS011;9737;59.466;18.036;2022-11-30T06:52:30;31.17;;;11.90;;
19207;SDS011;9737;59.466;18.036;2022-11-30T06:54:58;32.95;;;12.65;;
19207;SDS011;9737;59.466;18.036;2022-11-30T06:57:26;28.63;;;10.73;;
19207;SDS011;9737;59.466;18.036;2022-11-30T06:59:55;23.92;;;10.05;;
19207;SDS011;9737;59.466;18.036;2022-11-30T07:02:24;22.15;;;9.73;;
19207;SDS011;9737;59.466;18.036;2022-11-30T07:04:52;21.65;;;9.70;;
19207;SDS011;9737;59.466;18.036;2022-11-30T07:07:20;27.70;;;10.63;;
19207;SDS011;9737;59.466;18.036;2022-11-30T07:09:48;24.00;;;10.38;;
19207;SDS011;9737;59.466;18.036;2022-11-30T07:12:16;20.65;;;9.82;;
19207;SDS011;9737;59.466;18.036;2022-11-30T07:14:44;26.10;;;10.43;;
19207;SDS011;9737;59.466;18.036;2022-11-30T07:17:12;25.63;;;10.60;;
19207;SDS011;9737;59.466;18.036;2022-11-30T07:19:42;28.20;;;10.50;;
19207;SDS011;9737;59.466;18.036;2022-11-30T07:22:10;23.65;;;10.15;;
19207;SDS011;9737;59.466;18.036;2022-11-30T07:24:37;26.73;;;12.05;;
19207;SDS011;9737;59.466;18.036;2022-11-30T07:27:23;28.17;;;12.10;;
19207;SDS011;9737;59.466;18.036;2022-11-30T07:29:51;29.80;;;11.20;;
19207;SDS011;9737;59.466;18.036;2022-11-30T07:32:19;30.10;;;12.20;;
19207;SDS011;9737;59.466;18.036;2022-11-30T07:34:48;32.65;;;13.30;;
19207;SDS011;9737;59.466;18.036;2022-11-30T07:37:16;33.63;;;14.30;;
19207;SDS011;9737;59.466;18.036;2022-11-30T07:39:44;28.25;;;12.35;;
19207;SDS011;9737;59.466;18.036;2022-11-30T07:42:12;31.10;;;13.18;;
19207;SDS011;9737;59.466;18.036;2022-11-30T07:44:39;27.98;;;12.45;;
19207;SDS011;9737;59.466;18.036;2022-11-30T07:47:08;28.65;;;13.23;;
19207;SDS011;9737;59.466;18.036;2022-11-30T07:49:35;28.73;;;12.25;;
19207;SDS011;9737;59.466;18.036;2022-11-30T07:52:06;31.15;;;12.27;;
19207;SDS011;9737;59.466;18.036;2022-11-30T07:54:34;26.85;;;12.27;;
19207;SDS011;9737;59.466;18.036;2022-11-30T07:57:02;32.13;;;13.90;;
19207;SDS011;9737;59.466;18.036;2022-11-30T07:59:30;32.47;;;13.75;;
19207;SDS011;9737;59.466;18.036;2022-11-30T08:01:58;34.75;;;14.18;;
19207;SDS011;9737;59.466;18.036;2022-11-30T08:04:26;36.75;;;13.45;;
19207;SDS011;9737;59.466;18.036;2022-11-30T08:06:54;33.45;;;14.27;;
19207;SDS011;9737;59.466;18.036;2022-11-30T08:09:24;41.95;;;16.70;;
19207;SDS011;9737;59.466;18.036;2022-11-30T08:11:51;40.50;;;17.42;;
19207;SDS011;9737;59.466;18.036;2022-11-30T08:14:19;47.80;;;17.52;;
19207;SDS011;9737;59.466;18.036;2022-11-30T08:16:47;38.42;;;16.02;;
19207;SDS011;9737;59.466;18.036;2022-11-30T08:19:15;42.20;;;17.05;;
19207;SDS011;9737;59.466;18.036;2022-11-30T08:21:43;38.80;;;16.40;;
19207;SDS011;9737;59.466;18.036;2022-11-30T08:24:11;40.45;;;16.50;;
19207;SDS011;9737;59.466;18.036;2022-11-30T08:26:40;34.38;;;15.10;;
19207;SDS011;9737;59.466;18.036;2022-11-30T08:29:08;36.47;;;14.68;;
19207;SDS011;9737;59.466;18.036;2022-11-30T08:31:38;39.33;;;15.63;;
19207;SDS011;9737;59.466;18.036;2022-11-30T08:34:06;37.35;;;15.68;;
19207;SDS011;9737;59.466;18.036;2022-11-30T08:36:36;48.65;;;19.45;;
19207;SDS011;9737;59.466;18.036;2022-11-30T08:39:06;42.55;;;18.33;;
19207;SDS011;9737;59.466;18.036;2022-11-30T08:41:35;47.00;;;20.20;;
19207;SDS011;9737;59.466;18.036;2022-11-30T08:44:05;53.85;;;21.08;;
19207;SDS011;9737;59.466;18.036;2022-11-30T08:46:34;51.83;;;21.52;;
19207;SDS011;9737;59.466;18.036;2022-11-30T08:49:18;37.78;;;16.05;;
19207;SDS011;9737;59.466;18.036;2022-11-30T08:51:49;43.80;;;15.45;;
19207;SDS011;9737;59.466;18.036;2022-11-30T08:54:40;37.65;;;14.88;;
19207;SDS011;9737;59.466;18.036;2022-11-30T08:57:11;33.55;;;13.60;;
19207;SDS011;9737;59.466;18.036;2022-11-30T08:59:41;42.45;;;16.80;;
19207;SDS011;9737;59.466;18.036;2022-11-30T09:02:09;35.70;;;15.88;;
19207;SDS011;9737;59.466;18.036;2022-11-30T09:04:39;35.75;;;16.58;;
19207;SDS011;9737;59.466;18.036;2022-11-30T09:07:07;41.78;;;17.95;;
19207;SDS011;9737;59.466;18.036;2022-11-30T09:09:35;44.83;;;18.85;;
19207;SDS011;9737;59.466;18.036;2022-11-30T09:12:05;50.42;;;20.77;;
19207;SDS011;9737;59.466;18.036;2022-11-30T09:14:33;53.80;;;22.50;;
19207;SDS011;9737;59.466;18.036;2022-11-30T09:17:03;51.30;;;20.45;;
19207;SDS011;9737;59.466;18.036;2022-11-30T09:19:30;48.85;;;20.25;;
19207;SDS011;9737;59.466;18.036;2022-11-30T09:21:59;39.97;;;17.85;;
19207;SDS011;9737;59.466;18.036;2022-11-30T09:24:26;49.13;;;19.38;;
19207;SDS011;9737;59.466;18.036;2022-11-30T09:26:54;52.65;;;20.35;;
19207;SDS011;9737;59.466;18.036;2022-11-30T09:29:23;46.72;;;19.65;;
19207;SDS011;9737;59.466;18.036;2022-11-30T09:31:51;42.65;;;18.52;;
19207;SDS011;9737;59.466;18.036;2022-11-30T09:34:20;54.45;;;20.75;;
19207;SDS011;9737;59.466;18.036;2022-11-30T09:36:48;53.25;;;20.15;;
19207;SDS011;9737;59.466;18.036;2022-11-30T09:39:16;41.72;;;18.30;;
19207;SDS011;9737;59.466;18.036;2022-11-30T09:41:50;41.05;;;16.85;;
19207;SDS011;9737;59.466;18.036;2022-11-30T09:44:36;43.42;;;17.92;;
19207;SDS011;9737;59.466;18.036;2022-11-30T09:47:19;38.42;;;15.45;;
19207;SDS011;9737;59.466;18.036;2022-11-30T09:50:03;42.47;;;15.95;;
19207;SDS011;9737;59.466;18.036;2022-11-30T09:52:39;37.65;;;15.25;;
19207;SDS011;9737;59.466;18.036;2022-11-30T09:55:11;36.42;;;15.85;;
19207;SDS011;9737;59.466;18.036;2022-11-30T09:57:44;35.38;;;14.38;;
19207;SDS011;9737;59.466;18.036;2022-11-30T10:00:14;37.88;;;14.15;;
19207;SDS011;9737;59.466;18.036;2022-11-30T10:02:44;30.50;;;12.38;;
19207;SDS011;9737;59.466;18.036;2022-11-30T10:05:14;38.40;;;14.75;;
19207;SDS011;9737;59.466;18.036;2022-11-30T10:07:50;33.08;;;14.73;;
19207;SDS011;9737;59.466;18.036;2022-11-30T10:10:31;38.95;;;14.57;;
19207;SDS011;9737;59.466;18.036;2022-11-30T10:13:12;36.13;;;15.60;;
19207;SDS011;9737;59.466;18.036;2022-11-30T10:15:53;32.17;;;13.95;;
19207;SDS011;9737;59.466;18.036;2022-11-30T10:18:32;37.30;;;14.38;;
19207;SDS011;9737;59.466;18.036;2022-11-30T10:21:12;41.13;;;16.40;;
19207;SDS011;9737;59.466;18.036;2022-11-30T10:23:53;33.00;;;15.18;;
19207;SDS011;9737;59.466;18.036;2022-11-30T10:26:30;37.67;;;16.55;;
19207;SDS011;9737;59.466;18.036;2022-11-30T10:29:02;37.55;;;17.17;;
19207;SDS011;9737;59.466;18.036;2022-11-30T10:31:40;29.33;;;13.82;;
19207;SDS011;9737;59.466;18.036;2022-11-30T10:34:14;27.88;;;13.45;;
19207;SDS011;9737;59.466;18.036;2022-11-30T10:36:48;22.33;;;12.02;;
19207;SDS011;9737;59.466;18.036;2022-11-30T10:39:21;26.40;;;15.38;;
19207;SDS011;9737;59.466;18.036;2022-11-30T10:41:55;20.45;;;11.43;;
19207;SDS011;9737;59.466;18.036;2022-11-30T10:44:29;18.95;;;11.43;;
19207;SDS011;9737;59.466;18.036;2022-11-30T10:47:01;17.17;;;10.35;;
19207;SDS011;9737;59.466;18.036;2022-11-30T10:49:34;19.25;;;10.98;;
19207;SDS011;9737;59.466;18.036;2022-11-30T10:52:06;19.40;;;12.27;;
19207;SDS011;9737;59.466;18.036;2022-11-30T10:54:37;20.75;;;11.65;;
19207;SDS011;9737;59.466;18.036;2022-11-30T10:57:05;25.20;;;13.50;;
19207;SDS011;9737;59.466;18.036;2022-11-30T10:59:37;21.80;;;12.45;;
19207;SDS011;9737;59.466;18.036;2022-11-30T11:05:07;20.25;;;12.05;;
19207;SDS011;9737;59.466;18.036;2022-11-30T11:07:47;14.10;;;9.48;;
19207;SDS011;9737;59.466;18.036;2022-11-30T11:10:17;20.83;;;11.27;;
19207;SDS011;9737;59.466;18.036;2022-11-30T11:12:47;17.83;;;10.40;;
19207;SDS011;9737;59.466;18.036;2022-11-30T11:15:17;14.80;;;9.50;;
19207;SDS011;9737;59.466;18.036;2022-11-30T11:17:47;15.52;;;8.93;;
19207;SDS011;9737;59.466;18.036;2022-11-30T11:20:29;12.25;;;7.90;;
19207;SDS011;9737;59.466;18.036;2022-11-30T11:23:02;14.20;;;8.10;;
19207;SDS011;9737;59.466;18.036;2022-11-30T11:25:31;11.90;;;7.43;;
19207;SDS011;9737;59.466;18.036;2022-11-30T11:28:02;10.88;;;7.05;;
19207;SDS011;9737;59.466;18.036;2022-11-30T11:30:35;12.98;;;8.45;;
19207;SDS011;9737;59.466;18.036;2022-11-30T11:33:14;9.30;;;6.57;;
19207;SDS011;9737;59.466;18.036;2022-11-30T11:35:46;10.68;;;6.63;;
19207;SDS011;9737;59.466;18.036;2022-11-30T11:38:20;8.85;;;6.28;;
19207;SDS011;9737;59.466;18.036;2022-11-30T11:40:51;8.68;;;6.07;;
19207;SDS011;9737;59.466;18.036;2022-11-30T11:43:22;10.95;;;6.53;;
19207;SDS011;9737;59.466;18.036;2022-11-30T11:45:52;10.02;;;6.65;;
19207;SDS011;9737;59.466;18.036;2022-11-30T11:48:26;13.13;;;7.18;;
19207;SDS011;9737;59.466;18.036;2022-11-30T11:50:57;11.60;;;6.85;;
19207;SDS011;9737;59.466;18.036;2022-11-30T11:53:38;11.02;;;6.85;;
19207;SDS011;9737;59.466;18.036;2022-11-30T11:56:20;14.27;;;8.13;;
19207;SDS011;9737;59.466;18.036;2022-11-30T11:58:54;17.25;;;9.85;;
19207;SDS011;9737;59.466;18.036;2022-11-30T12:07:11;18.33;;;9.68;;
19207;SDS011;9737;59.466;18.036;2022-11-30T12:09:52;18.17;;;8.85;;
19207;SDS011;9737;59.466;18.036;2022-11-30T12:12:27;18.65;;;8.48;;
19207;SDS011;9737;59.466;18.036;2022-11-30T12:14:55;18.75;;;10.05;;
19207;SDS011;9737;59.466;18.036;2022-11-30T12:17:37;16.70;;;9.82;;
19207;SDS011;9737;59.466;18.036;2022-11-30T12:20:16;19.73;;;10.05;;
19207;SDS011;9737;59.466;18.036;2022-11-30T12:22:56;20.30;;;10.63;;
19207;SDS011;9737;59.466;18.036;2022-11-30T12:25:36;19.50;;;10.10;;
19207;SDS011;9737;59.466;18.036;2022-11-30T12:28:12;17.65;;;9.13;;
19207;SDS011;9737;59.466;18.036;2022-11-30T12:30:48;20.08;;;10.18;;
19207;SDS011;9737;59.466;18.036;2022-11-30T12:33:26;20.27;;;9.50;;
19207;SDS011;9737;59.466;18.036;2022-11-30T12:36:05;20.60;;;10.23;;
19207;SDS011;9737;59.466;18.036;2022-11-30T12:38:44;20.40;;;10.10;;
19207;SDS011;9737;59.466;18.036;2022-11-30T12:41:29;21.08;;;9.73;;
19207;SDS011;9737;59.466;18.036;2022-11-30T12:44:23;17.02;;;9.40;;
19207;SDS011;9737;59.466;18.036;2022-11-30T12:47:09;18.60;;;9.90;;
19207;SDS011;9737;59.466;18.036;2022-11-30T12:49:50;20.38;;;9.60;;
19207;SDS011;9737;59.466;18.036;2022-11-30T12:52:31;19.48;;;9.27;;
19207;SDS011;9737;59.466;18.036;2022-11-30T12:55:09;20.05;;;10.27;;
19207;SDS011;9737;59.466;18.036;2022-11-30T12:57:54;22.95;;;10.60;;
19207;SDS011;9737;59.466;18.036;2022-11-30T13:00:27;25.55;;;11.68;;
19207;SDS011;9737;59.466;18.036;2022-11-30T13:03:09;27.65;;;13.02;;
19207;SDS011;9737;59.466;18.036;2022-11-30T13:05:56;23.40;;;11.38;;
19207;SDS011;9737;59.466;18.036;2022-11-30T13:08:28;23.50;;;11.07;;
19207;SDS011;9737;59.466;18.036;2022-11-30T13:11:01;26.58;;;12.43;;
19207;SDS011;9737;59.466;18.036;2022-11-30T13:13:36;35.92;;;14.38;;
19207;SDS011;9737;59.466;18.036;2022-11-30T13:16:12;24.58;;;12.55;;
19207;SDS011;9737;59.466;18.036;2022-11-30T13:18:41;37.42;;;14.45;;
19207;SDS011;9737;59.466;18.036;2022-11-30T13:21:14;38.47;;;15.05;;
19207;SDS011;9737;59.466;18.036;2022-11-30T13:23:51;42.50;;;16.42;;
19207;SDS011;9737;59.466;18.036;2022-11-30T13:26:26;41.90;;;15.82;;
19207;SDS011;9737;59.466;18.036;2022-11-30T13:29:13;54.28;;;16.88;;
19207;SDS011;9737;59.466;18.036;2022-11-30T13:31:50;52.58;;;17.00;;
19207;SDS011;9737;59.466;18.036;2022-11-30T13:34:24;67.47;;;20.67;;
19207;SDS011;9737;59.466;18.036;2022-11-30T13:37:03;68.40;;;19.08;;
19207;SDS011;9737;59.466;18.036;2022-11-30T13:39:36;62.28;;;19.90;;
19207;SDS011;9737;59.466;18.036;2022-11-30T13:48:16;98.03;;;23.40;;
19207;SDS011;9737;59.466;18.036;2022-11-30T13:50:56;59.47;;;17.92;;
19207;SDS011;9737;59.466;18.036;2022-11-30T13:53:25;45.67;;;17.27;;
19207;SDS011;9737;59.466;18.036;2022-11-30T13:56:00;77.32;;;21.25;;
19207;SDS011;9737;59.466;18.036;2022-11-30T13:58:29;86.85;;;21.48;;
19207;SDS011;9737;59.466;18.036;2022-11-30T14:01:03;73.95;;;21.73;;
19207;SDS011;9737;59.466;18.036;2022-11-30T14:07:03;66.90;;;20.45;;
19207;SDS011;9737;59.466;18.036;2022-11-30T14:09:56;67.13;;;19.73;;
19207;SDS011;9737;59.466;18.036;2022-11-30T14:15:26;50.30;;;15.30;;
19207;SDS011;9737;59.466;18.036;2022-11-30T14:18:14;46.58;;;17.95;;
19207;SDS011;9737;59.466;18.036;2022-11-30T14:20:47;58.80;;;18.60;;
19207;SDS011;9737;59.466;18.036;2022-11-30T14:23:21;47.60;;;16.42;;
19207;SDS011;9737;59.466;18.036;2022-11-30T14:25:53;43.83;;;18.48;;
19207;SDS011;9737;59.466;18.036;2022-11-30T14:28:24;50.33;;;19.52;;
19207;SDS011;9737;59.466;18.036;2022-11-30T14:30:57;61.45;;;20.58;;
19207;SDS011;9737;59.466;18.036;2022-11-30T14:33:30;50.60;;;18.52;;
19207;SDS011;9737;59.466;18.036;2022-11-30T14:36:06;51.08;;;19.92;;
19207;SDS011;9737;59.466;18.036;2022-11-30T14:38:39;47.78;;;18.67;;
19207;SDS011;9737;59.466;18.036;2022-11-30T14:41:17;45.88;;;18.40;;
19207;SDS011;9737;59.466;18.036;2022-11-30T14:44:03;51.25;;;19.05;;
19207;SDS011;9737;59.466;18.036;2022-11-30T14:46:33;46.72;;;18.17;;
19207;SDS011;9737;59.466;18.036;2022-11-30T14:51:49;48.80;;;18.83;;
19207;SDS011;9737;59.466;18.036;2022-11-30T14:54:25;40.08;;;16.83;;
19207;SDS011;9737;59.466;18.036;2022-11-30T14:57:05;43.50;;;17.65;;
19207;SDS011;9737;59.466;18.036;2022-11-30T14:59:45;40.30;;;16.45;;
19207;SDS011;9737;59.466;18.036;2022-11-30T15:02:21;44.70;;;17.80;;
19207;SDS011;9737;59.466;18.036;2022-11-30T15:04:52;40.47;;;17.40;;
19207;SDS011;9737;59.466;18.036;2022-11-30T15:07:21;37.33;;;14.60;;
19207;SDS011;9737;59.466;18.036;2022-11-30T15:09:53;43.42;;;18.40;;
19207;SDS011;9737;59.466;18.036;2022-11-30T15:12:26;41.97;;;18.55;;
19207;SDS011;9737;59.466;18.036;2022-11-30T15:15:01;38.03;;;16.33;;
19207;SDS011;9737;59.466;18.036;2022-11-30T15:17:49;45.65;;;16.55;;